HIY weather

Tlatelolco II Heliport
Cuauhtémoc, Distrito Federal, Mexico

Public forecast

Using degrees Celsius for public forecast. Weather courtesy of forecast.io.

METAR (pilot weather report)

Closest report is Licenciado Benito Juarez International Airport, 4.1 nm (7.6 km) E. Retrieved 2019/08/24 19:41 UTC (0 seconds ago):

MMMX 241941Z 08004KT 6SM SCT020 25/10 A3030 NOSIG RMK 8/200 HZY ISOL AC CI DSNT CB E

TAF (pilot weather forecast)

Closest forecast is Licenciado Benito Juarez International Airport, 4.1 nm (7.6 km) E. Retrieved 2019/08/24 18:44 UTC (39 minutes ago):

TAF MMMX 241738Z 2418/2524 08010KT P6SM SCT020 TX25/2421Z TN15/2512Z FM242200 22010KT P6SM VC RA SCT020CB BKN080 TEMPO 2422/2502 4SM TSRA BKN020CB FM250300 14005KT P6SM SCT090 BKN220 FM251200 04005KT P6SM SCT090 FM251800 22010KT P6SM SCT020 BKN100 TEMPO 2521/2524 4SM TSRA BKN020CB